createdAt,value
2022-10-30T00:01:16.517Z,100.00
2022-10-30T00:03:43.561Z,100.00
2022-10-30T00:06:10.735Z,100.00
2022-10-30T00:08:38.100Z,100.00
2022-10-30T00:13:57.587Z,100.00
2022-10-30T00:16:24.824Z,100.00
2022-10-30T00:18:52.103Z,100.00
2022-10-30T00:21:19.256Z,100.00
2022-10-30T00:23:48.660Z,100.00
2022-10-30T00:26:16.598Z,100.00
2022-10-30T00:31:29.654Z,100.00
2022-10-30T00:36:41.416Z,100.00
2022-10-30T00:39:08.638Z,100.00
2022-10-30T00:44:37.695Z,100.00
2022-10-30T00:47:26.735Z,100.00
2022-10-30T00:52:58.266Z,100.00
2022-10-30T00:55:34.850Z,100.00
2022-10-30T00:58:07.995Z,100.00
2022-10-30T01:03:22.501Z,100.00
2022-10-30T01:05:55.072Z,100.00
2022-10-30T01:08:22.316Z,100.00
2022-10-30T01:10:50.672Z,100.00
2022-10-30T01:13:21.338Z,100.00
2022-10-30T01:19:23.711Z,100.00
2022-10-30T01:22:02.892Z,100.00
2022-10-30T01:24:48.243Z,100.00
2022-10-30T01:27:39.500Z,100.00
2022-10-30T01:30:17.922Z,100.00
2022-10-30T01:36:32.000Z,100.00
2022-10-30T01:39:05.145Z,100.00
2022-10-30T01:41:32.262Z,100.00
2022-10-30T01:44:08.852Z,100.00
2022-10-30T01:47:02.884Z,100.00
2022-10-30T01:50:07.592Z,100.00
2022-10-30T01:55:55.437Z,100.00
2022-10-30T01:58:32.136Z,100.00
2022-10-30T02:01:00.808Z,100.00
2022-10-30T02:03:29.911Z,100.00
2022-10-30T02:05:56.953Z,100.00
2022-10-30T02:08:24.534Z,100.00
2022-10-30T02:13:42.210Z,100.00
2022-10-30T02:16:10.479Z,100.00
2022-10-30T02:18:37.814Z,100.00
2022-10-30T02:21:05.212Z,100.00
2022-10-30T02:23:33.272Z,100.00
2022-10-30T02:26:00.377Z,100.00
2022-10-30T02:28:28.162Z,100.00
2022-10-30T02:30:55.491Z,100.00
2022-10-30T02:33:25.382Z,100.00
2022-10-30T02:35:53.535Z,100.00
2022-10-30T02:38:20.758Z,100.00
2022-10-30T02:40:50.470Z,100.00
2022-10-30T02:43:17.723Z,100.00
2022-10-30T02:45:44.812Z,100.00
2022-10-30T02:48:12.646Z,100.00
2022-10-30T02:50:40.011Z,100.00
2022-10-30T02:53:07.089Z,100.00
2022-10-30T02:55:34.326Z,100.00
2022-10-30T02:58:01.654Z,100.00
2022-10-30T03:00:30.026Z,100.00
2022-10-30T03:05:42.092Z,100.00
2022-10-30T03:08:09.430Z,100.00
2022-10-30T03:10:36.679Z,100.00
2022-10-30T03:13:03.964Z,100.00
2022-10-30T03:15:32.553Z,100.00
2022-10-30T03:17:59.824Z,100.00
2022-10-30T03:20:27.225Z,100.00
2022-10-30T03:22:54.701Z,100.00
2022-10-30T03:25:24.227Z,100.00
2022-10-30T03:30:39.639Z,100.00
2022-10-30T03:33:06.894Z,100.00
2022-10-30T03:38:20.965Z,100.00
2022-10-30T03:40:48.174Z,100.00
2022-10-30T03:43:16.683Z,100.00
2022-10-30T03:45:52.244Z,100.00
2022-10-30T03:48:21.076Z,100.00
2022-10-30T03:50:48.510Z,100.00
2022-10-30T03:53:16.008Z,100.00
2022-10-30T03:55:43.292Z,100.00
2022-10-30T03:58:10.480Z,100.00
2022-10-30T04:03:22.872Z,100.00
2022-10-30T04:05:53.931Z,100.00
2022-10-30T04:08:21.163Z,100.00
2022-10-30T04:10:48.571Z,100.00
2022-10-30T04:13:17.725Z,100.00
2022-10-30T04:15:55.985Z,100.00
2022-10-30T04:18:25.129Z,100.00
2022-10-30T04:20:52.592Z,100.00
2022-10-30T04:23:21.919Z,100.00
2022-10-30T04:25:49.373Z,100.00
2022-10-30T04:28:16.859Z,100.00
2022-10-30T04:30:46.184Z,100.00
2022-10-30T04:33:16.071Z,100.00
2022-10-30T04:35:44.112Z,100.00
2022-10-30T04:38:20.026Z,100.00
2022-10-30T04:40:48.541Z,100.00
2022-10-30T04:43:16.661Z,100.00
2022-10-30T04:45:48.203Z,100.00
2022-10-30T04:48:17.822Z,100.00
2022-10-30T04:50:47.237Z,100.00
2022-10-30T04:53:22.215Z,100.00
2022-10-30T04:55:54.943Z,100.00
2022-10-30T04:58:22.445Z,100.00
2022-10-30T05:01:03.459Z,100.00
2022-10-30T05:06:20.820Z,100.00
2022-10-30T05:08:48.366Z,100.00
2022-10-30T05:11:26.268Z,100.00
2022-10-30T05:13:53.533Z,100.00
2022-10-30T05:16:20.727Z,100.00
2022-10-30T05:18:48.371Z,100.00
2022-10-30T05:21:15.651Z,100.00
2022-10-30T05:23:42.770Z,100.00
2022-10-30T05:26:10.803Z,100.00
2022-10-30T05:28:37.951Z,100.00
2022-10-30T05:31:05.662Z,100.00
2022-10-30T05:33:53.080Z,100.00
2022-10-30T05:39:06.315Z,100.00
2022-10-30T05:41:36.992Z,100.00
2022-10-30T05:44:04.451Z,100.00
2022-10-30T05:49:25.555Z,100.00
2022-10-30T05:51:53.023Z,100.00
2022-10-30T05:54:21.012Z,100.00
2022-10-30T05:57:05.141Z,100.00
2022-10-30T06:02:20.088Z,100.00
2022-10-30T06:04:47.342Z,100.00
2022-10-30T06:07:15.102Z,100.00
2022-10-30T06:09:42.628Z,100.00
2022-10-30T06:12:40.762Z,100.00
2022-10-30T06:15:35.834Z,100.00
2022-10-30T06:18:03.242Z,100.00
2022-10-30T06:20:42.183Z,100.00
2022-10-30T06:26:32.696Z,100.00
2022-10-30T06:29:06.116Z,100.00
2022-10-30T06:31:33.237Z,100.00
2022-10-30T06:34:01.674Z,100.00
2022-10-30T06:36:30.148Z,100.00
2022-10-30T06:38:58.834Z,100.00
2022-10-30T06:41:30.936Z,100.00
2022-10-30T06:44:09.508Z,100.00
2022-10-30T06:49:23.107Z,100.00
2022-10-30T06:54:35.761Z,100.00
2022-10-30T06:57:32.221Z,100.00
2022-10-30T07:00:15.255Z,100.00
2022-10-30T07:05:46.865Z,100.00
2022-10-30T07:10:58.916Z,100.00
2022-10-30T07:13:38.173Z,100.00
2022-10-30T07:16:34.392Z,100.00
2022-10-30T07:19:04.516Z,100.00
2022-10-30T07:21:32.892Z,100.00
2022-10-30T07:24:01.552Z,100.00
2022-10-30T07:26:33.873Z,100.00
2022-10-30T07:29:07.524Z,100.00
2022-10-30T07:31:57.752Z,100.00
2022-10-30T07:34:44.195Z,100.00
2022-10-30T07:43:07.099Z,100.00
2022-10-30T07:45:55.921Z,100.00
2022-10-30T07:48:52.642Z,100.00
2022-10-30T07:54:13.841Z,100.00
2022-10-30T08:02:57.952Z,100.00
2022-10-30T08:05:43.982Z,100.00
2022-10-30T08:08:28.901Z,100.00
2022-10-30T08:11:07.842Z,100.00
2022-10-30T08:13:35.063Z,100.00
2022-10-30T08:16:02.547Z,100.00
2022-10-30T08:18:29.706Z,100.00
2022-10-30T08:20:57.054Z,100.00
2022-10-30T08:23:24.371Z,100.00
2022-10-30T08:25:51.698Z,100.00
2022-10-30T08:28:19.032Z,100.00
2022-10-30T08:30:46.337Z,100.00
2022-10-30T08:33:17.119Z,100.00
2022-10-30T08:36:07.983Z,100.00
2022-10-30T08:38:35.168Z,100.00
2022-10-30T08:44:06.846Z,100.00
2022-10-30T08:46:53.875Z,100.00
2022-10-30T08:49:21.912Z,100.00
2022-10-30T08:51:53.736Z,100.00
2022-10-30T08:54:21.147Z,100.00
2022-10-30T08:56:48.674Z,100.00
2022-10-30T08:59:21.379Z,100.00
2022-10-30T09:01:51.556Z,100.00
2022-10-30T09:04:19.121Z,100.00
2022-10-30T09:12:48.928Z,100.00
2022-10-30T09:15:16.428Z,100.00
2022-10-30T09:18:01.231Z,100.00
2022-10-30T09:20:29.947Z,100.00
2022-10-30T09:22:57.696Z,100.00
2022-10-30T09:25:25.294Z,100.00
2022-10-30T09:28:12.701Z,100.00
2022-10-30T09:33:50.217Z,100.00
2022-10-30T09:36:35.915Z,100.00
2022-10-30T09:39:03.102Z,100.00
2022-10-30T09:41:47.002Z,100.00
2022-10-30T09:44:34.420Z,100.00
2022-10-30T09:47:23.333Z,100.00
2022-10-30T09:50:10.502Z,100.00
2022-10-30T09:56:00.222Z,100.00
2022-10-30T09:58:40.141Z,100.00
2022-10-30T10:01:26.057Z,100.00
2022-10-30T10:04:28.637Z,100.00
2022-10-30T10:07:42.138Z,100.00
2022-10-30T10:10:45.458Z,100.00
2022-10-30T10:13:27.852Z,100.00
2022-10-30T10:16:02.771Z,100.00
2022-10-30T10:18:45.941Z,100.00
2022-10-30T10:21:26.823Z,100.00
2022-10-30T10:26:50.235Z,100.00
2022-10-30T10:29:34.462Z,100.00
2022-10-30T10:32:41.251Z,100.00
2022-10-30T10:35:39.120Z,100.00
2022-10-30T10:38:22.216Z,100.00
2022-10-30T10:41:23.700Z,100.00
2022-10-30T10:44:18.339Z,100.00
2022-10-30T10:47:18.960Z,100.00
2022-10-30T10:50:07.394Z,100.00
2022-10-30T10:52:37.485Z,100.00
2022-10-30T10:55:18.906Z,100.00
2022-10-30T10:57:47.478Z,100.00
2022-10-30T11:00:18.591Z,100.00
2022-10-30T11:03:01.047Z,100.00
2022-10-30T11:05:38.996Z,100.00
2022-10-30T11:11:07.226Z,100.00
2022-10-30T11:13:38.420Z,100.00
2022-10-30T11:16:29.678Z,100.00
2022-10-30T11:19:03.583Z,100.00
2022-10-30T11:21:38.853Z,100.00
2022-10-30T11:27:20.024Z,100.00
2022-10-30T11:29:51.681Z,100.00
2022-10-30T11:32:22.954Z,100.00
2022-10-30T11:35:22.796Z,100.00
2022-10-30T11:38:14.626Z,100.00
2022-10-30T11:40:48.464Z,100.00
2022-10-30T11:43:22.342Z,100.00
2022-10-30T11:45:50.580Z,100.00
2022-10-30T11:48:27.560Z,100.00
2022-10-30T11:51:01.616Z,100.00
2022-10-30T11:53:51.800Z,100.00
2022-10-30T11:56:23.181Z,100.00
2022-10-30T11:58:55.557Z,100.00
2022-10-30T12:01:39.424Z,100.00
2022-10-30T12:04:27.582Z,100.00
2022-10-30T12:10:04.912Z,100.00
2022-10-30T12:12:43.294Z,100.00
2022-10-30T12:15:18.530Z,99.76
2022-10-30T12:17:59.785Z,99.41
2022-10-30T12:20:28.186Z,99.46
2022-10-30T12:22:56.512Z,99.31
2022-10-30T12:25:28.685Z,99.36
2022-10-30T12:28:13.730Z,99.49
2022-10-30T12:31:05.851Z,99.67
2022-10-30T12:33:39.121Z,99.48
2022-10-30T12:39:05.020Z,98.79
2022-10-30T12:41:40.941Z,99.56
2022-10-30T12:44:08.125Z,99.69
2022-10-30T12:46:56.883Z,99.84
2022-10-30T12:49:38.775Z,100.00
2022-10-30T12:52:24.261Z,100.00
2022-10-30T12:55:19.864Z,100.00
2022-10-30T12:57:55.234Z,100.00
2022-10-30T13:00:22.628Z,100.00
2022-10-30T13:06:00.374Z,100.00
2022-10-30T13:08:39.716Z,99.96
2022-10-30T13:11:09.633Z,99.93
2022-10-30T13:13:43.713Z,99.57
2022-10-30T13:16:18.605Z,99.12
2022-10-30T13:18:45.771Z,98.88
2022-10-30T13:21:23.032Z,99.07
2022-10-30T13:26:57.901Z,99.27
2022-10-30T13:29:31.120Z,98.99
2022-10-30T13:32:17.743Z,98.23
2022-10-30T13:35:16.025Z,98.63
2022-10-30T13:37:53.222Z,98.49
2022-10-30T13:43:42.712Z,99.02
2022-10-30T13:46:32.936Z,98.97
2022-10-30T13:49:13.114Z,99.57
2022-10-30T13:51:52.441Z,99.40
2022-10-30T13:54:28.963Z,99.85
2022-10-30T13:57:01.769Z,99.74
2022-10-30T13:59:44.028Z,100.00
2022-10-30T14:02:41.829Z,100.00
2022-10-30T14:05:37.016Z,100.00
2022-10-30T14:08:40.245Z,100.00
2022-10-30T14:11:11.431Z,100.00
2022-10-30T14:16:42.353Z,100.00
2022-10-30T14:19:10.604Z,100.00
2022-10-30T14:21:49.894Z,100.00
2022-10-30T14:24:42.913Z,100.00
2022-10-30T14:27:11.944Z,100.00
2022-10-30T14:29:44.762Z,100.00
2022-10-30T14:32:14.683Z,100.00
2022-10-30T14:34:43.173Z,100.00
2022-10-30T14:37:11.625Z,100.00
2022-10-30T14:39:41.213Z,100.00
2022-10-30T14:42:35.751Z,100.00
2022-10-30T14:45:25.333Z,100.00
2022-10-30T14:48:14.170Z,100.00
2022-10-30T14:51:32.861Z,100.00
2022-10-30T14:54:23.222Z,100.00
2022-10-30T14:56:53.420Z,100.00
2022-10-30T14:59:31.938Z,100.00
2022-10-30T15:02:14.557Z,100.00
2022-10-30T15:07:42.741Z,100.00
2022-10-30T15:10:28.459Z,100.00
2022-10-30T15:13:14.346Z,100.00
2022-10-30T15:15:42.143Z,100.00
2022-10-30T15:18:16.839Z,100.00
2022-10-30T15:20:50.251Z,100.00
2022-10-30T15:23:37.929Z,100.00
2022-10-30T15:26:09.881Z,100.00
2022-10-30T15:28:39.416Z,100.00
2022-10-30T15:31:18.662Z,100.00
2022-10-30T15:33:46.082Z,100.00
2022-10-30T15:36:43.365Z,100.00
2022-10-30T15:39:19.315Z,100.00
2022-10-30T15:41:54.473Z,100.00
2022-10-30T15:44:44.110Z,100.00
2022-10-30T15:47:17.634Z,100.00
2022-10-30T15:49:54.748Z,100.00
2022-10-30T15:52:28.710Z,100.00
2022-10-30T15:55:06.855Z,100.00
2022-10-30T15:58:07.028Z,100.00
2022-10-30T16:00:37.561Z,100.00
2022-10-30T16:06:17.232Z,100.00
2022-10-30T16:08:47.199Z,100.00
2022-10-30T16:11:15.764Z,100.00
2022-10-30T16:16:30.648Z,100.00
2022-10-30T16:24:36.144Z,100.00
2022-10-30T16:27:18.734Z,100.00
2022-10-30T16:29:49.008Z,100.00
2022-10-30T16:32:19.562Z,100.00
2022-10-30T16:34:48.001Z,100.00
2022-10-30T16:37:19.674Z,100.00
2022-10-30T16:39:50.027Z,100.00
2022-10-30T16:42:35.352Z,100.00
2022-10-30T16:45:11.659Z,100.00
2022-10-30T16:50:38.425Z,100.00
2022-10-30T16:53:15.592Z,100.00
2022-10-30T16:58:31.360Z,100.00
2022-10-30T17:01:05.413Z,100.00
2022-10-30T17:03:38.503Z,100.00
2022-10-30T17:06:26.662Z,100.00
2022-10-30T17:12:08.082Z,100.00
2022-10-30T17:14:51.786Z,100.00
2022-10-30T17:17:35.557Z,100.00
2022-10-30T17:20:07.487Z,100.00
2022-10-30T17:22:34.987Z,100.00
2022-10-30T17:25:02.376Z,100.00
2022-10-30T17:27:46.706Z,100.00
2022-10-30T17:30:38.843Z,100.00
2022-10-30T17:33:37.413Z,100.00
2022-10-30T17:36:06.115Z,100.00
2022-10-30T17:41:18.352Z,100.00
2022-10-30T17:49:30.438Z,100.00
2022-10-30T17:51:58.293Z,100.00
2022-10-30T17:54:26.186Z,100.00
2022-10-30T17:56:53.464Z,100.00
2022-10-30T18:02:17.169Z,100.00
2022-10-30T18:04:45.671Z,100.00
2022-10-30T18:07:15.323Z,100.00
2022-10-30T18:09:43.142Z,100.00
2022-10-30T18:12:15.764Z,100.00
2022-10-30T18:14:43.415Z,100.00
2022-10-30T18:17:11.943Z,100.00
2022-10-30T18:19:39.318Z,100.00
2022-10-30T18:22:06.527Z,100.00
2022-10-30T18:27:17.956Z,100.00
2022-10-30T18:32:29.403Z,100.00
2022-10-30T18:34:56.553Z,100.00
2022-10-30T18:37:23.642Z,100.00
2022-10-30T18:39:50.863Z,100.00
2022-10-30T18:45:02.441Z,100.00
2022-10-30T18:47:29.764Z,100.00
2022-10-30T18:49:57.120Z,100.00
2022-10-30T18:52:24.235Z,100.00
2022-10-30T18:54:51.344Z,100.00
2022-10-30T18:57:18.381Z,100.00
2022-10-30T19:02:30.148Z,100.00
2022-10-30T19:04:57.605Z,100.00
2022-10-30T19:07:24.945Z,100.00
2022-10-30T19:09:52.082Z,100.00
2022-10-30T19:12:19.167Z,100.00
2022-10-30T19:14:46.485Z,100.00
2022-10-30T19:17:13.582Z,100.00
2022-10-30T19:19:40.661Z,100.00
2022-10-30T19:22:09.705Z,100.00
2022-10-30T19:24:36.893Z,100.00
2022-10-30T19:27:04.106Z,100.00
2022-10-30T19:29:31.401Z,100.00
2022-10-30T19:31:58.592Z,100.00
2022-10-30T19:34:25.981Z,100.00
2022-10-30T19:36:53.113Z,100.00
2022-10-30T19:39:20.265Z,100.00
2022-10-30T19:41:47.353Z,100.00
2022-10-30T19:44:14.478Z,100.00
2022-10-30T19:46:41.723Z,100.00
2022-10-30T19:49:20.037Z,100.00
2022-10-30T19:51:47.651Z,100.00
2022-10-30T19:54:14.995Z,100.00
2022-10-30T19:56:45.206Z,100.00
2022-10-30T19:59:14.117Z,100.00
2022-10-30T20:04:25.870Z,100.00
2022-10-30T20:06:53.023Z,100.00
2022-10-30T20:09:23.933Z,100.00
2022-10-30T20:11:51.205Z,100.00
2022-10-30T20:14:18.298Z,100.00
2022-10-30T20:16:45.391Z,100.00
2022-10-30T20:19:30.195Z,100.00
2022-10-30T20:21:57.963Z,100.00
2022-10-30T20:24:25.345Z,100.00
2022-10-30T20:26:55.683Z,100.00
2022-10-30T20:29:23.218Z,100.00
2022-10-30T20:31:50.562Z,100.00
2022-10-30T20:34:17.925Z,100.00
2022-10-30T20:36:44.963Z,100.00
2022-10-30T20:39:12.472Z,100.00
2022-10-30T20:41:41.562Z,100.00
2022-10-30T20:44:12.584Z,100.00
2022-10-30T20:46:39.884Z,100.00
2022-10-30T20:49:17.118Z,100.00
2022-10-30T20:54:29.434Z,100.00
2022-10-30T20:56:56.592Z,100.00
2022-10-30T20:59:23.740Z,100.00
2022-10-30T21:07:22.660Z,100.00
2022-10-30T21:09:50.111Z,100.00
2022-10-30T21:12:18.456Z,100.00
2022-10-30T21:14:45.572Z,100.00
2022-10-30T21:17:12.711Z,100.00
2022-10-30T21:19:39.931Z,100.00
2022-10-30T21:22:07.361Z,100.00
2022-10-30T21:24:34.474Z,100.00
2022-10-30T21:27:01.637Z,100.00
2022-10-30T21:29:31.276Z,100.00
2022-10-30T21:32:01.431Z,100.00
2022-10-30T21:34:28.652Z,100.00
2022-10-30T21:36:55.874Z,100.00
2022-10-30T21:39:22.963Z,100.00
2022-10-30T21:41:50.083Z,100.00
2022-10-30T21:44:17.374Z,100.00
2022-10-30T21:46:44.608Z,100.00
2022-10-30T21:49:18.232Z,100.00
2022-10-30T21:51:48.156Z,100.00
2022-10-30T21:57:00.323Z,100.00
2022-10-30T21:59:27.601Z,100.00
2022-10-30T22:01:54.679Z,100.00
2022-10-30T22:04:21.928Z,100.00
2022-10-30T22:06:49.045Z,100.00
2022-10-30T22:09:17.665Z,100.00
2022-10-30T22:11:45.317Z,100.00
2022-10-30T22:14:12.631Z,100.00
2022-10-30T22:16:40.722Z,100.00
2022-10-30T22:19:08.855Z,100.00
2022-10-30T22:21:36.098Z,100.00
2022-10-30T22:24:04.122Z,100.00
2022-10-30T22:26:31.488Z,100.00
2022-10-30T22:29:00.557Z,100.00
2022-10-30T22:31:29.349Z,100.00
2022-10-30T22:33:56.556Z,100.00
2022-10-30T22:39:12.824Z,100.00
2022-10-30T22:41:40.635Z,100.00
2022-10-30T22:44:11.897Z,100.00
2022-10-30T22:46:39.386Z,100.00
2022-10-30T22:49:07.659Z,100.00
2022-10-30T22:51:36.948Z,100.00
2022-10-30T22:54:06.271Z,100.00
2022-10-30T22:56:35.162Z,100.00
2022-10-30T22:59:04.802Z,100.00
2022-10-30T23:01:34.314Z,100.00
2022-10-30T23:04:03.075Z,100.00
2022-10-30T23:06:31.894Z,100.00
2022-10-30T23:09:00.884Z,100.00
2022-10-30T23:11:28.829Z,100.00
2022-10-30T23:13:57.404Z,100.00
2022-10-30T23:16:26.472Z,100.00
2022-10-30T23:18:58.603Z,100.00
2022-10-30T23:21:27.793Z,100.00
2022-10-30T23:23:55.749Z,100.00
2022-10-30T23:26:26.147Z,100.00
2022-10-30T23:28:53.805Z,99.41
2022-10-30T23:31:26.309Z,99.34
2022-10-30T23:33:56.493Z,99.58
2022-10-30T23:36:24.409Z,99.57
2022-10-30T23:38:56.005Z,99.78
2022-10-30T23:41:25.238Z,99.47
2022-10-30T23:44:00.555Z,99.40
2022-10-30T23:46:28.464Z,99.18
2022-10-30T23:48:55.882Z,99.40
2022-10-30T23:51:23.662Z,99.71
2022-10-30T23:53:51.314Z,99.55
2022-10-30T23:56:18.873Z,99.22
2022-10-30T23:58:47.456Z,99.26
